Time;durP1;ratioP1;P1;durP2;ratioP2;P2;SDS_P1;SDS_P2;PMS_P1;PMS_P2;Temp;Humidity;BMP_temperature;BMP_pressure;BME280_temperature;BME280_humidity;BME280_pressure;Samples;Min_cycle;Max_cycle;Signal;HPM_P1;HPM_P2
2021/04/23 00:00:35;;;;;;;;;;;5.00;90.30;;;;;;5046688;28;20320;-73
2021/04/23 00:03:03;;;;;;;;;;;5.00;90.90;;;;;;5047380;28;19921;-72
2021/04/23 00:05:28;;;;;;;;;;;5.00;91.60;;;;;;5048062;28;19954;-72
2021/04/23 00:07:54;;;;;;;;;;;5.00;90.90;;;;;;5047714;28;19935;-72
2021/04/23 00:10:21;;;;;;;;;;;5.00;90.70;;;;;;5016013;28;19964;-72
2021/04/23 00:12:47;;;;;;;;;;;4.90;92.50;;;;;;5047406;28;20365;-73
2021/04/23 00:15:13;;;;;;;;;;;4.90;92.70;;;;;;5029634;28;19912;-72
2021/04/23 00:17:39;;;;;;;;;;;4.90;92.90;;;;;;5047173;28;20000;-72
2021/04/23 00:20:16;;;;;;;;;;;4.80;92.90;;;;;;5047965;28;20023;-72
2021/04/23 00:22:44;;;;;;;;;;;4.80;92.10;;;;;;5046867;28;19920;-73
2021/04/23 00:25:10;;;;;;;;;;;4.80;91.50;;;;;;5019467;28;19927;-72
2021/04/23 00:27:36;;;;;;;;;;;4.80;93.60;;;;;;5026424;28;20342;-72
2021/04/23 00:30:01;;;;;;;;;;;4.80;92.50;;;;;;5046064;28;19917;-72
2021/04/23 00:32:27;;;;;;;;;;;4.80;92.60;;;;;;5028211;28;19920;-72
2021/04/23 00:34:55;;;;;;;;;;;4.70;93.20;;;;;;5047900;28;19917;-72
2021/04/23 00:37:21;;;;;;;;;;;4.70;93.50;;;;;;5046967;28;19931;-73
2021/04/23 00:39:51;;;;;;;;;;;4.70;94.60;;;;;;5046440;28;19912;-72
2021/04/23 00:42:17;;;;;;;;;;;4.60;93.20;;;;;;5029501;28;19956;-72
2021/04/23 00:44:44;;;;;;;;;;;4.70;93.90;;;;;;5048258;28;20337;-72
2021/04/23 00:47:11;;;;;;;;;;;4.60;95.20;;;;;;5048434;28;19995;-72
2021/04/23 00:49:36;;;;;;;;;;;4.60;94.30;;;;;;5048603;28;20011;-73
2021/04/23 00:52:04;;;;;;;;;;;4.60;93.70;;;;;;5051026;28;19920;-72
2021/04/23 00:54:30;;;;;;;;;;;4.60;95.70;;;;;;5032744;28;21743;-72
2021/04/23 00:56:55;;;;;;;;;;;4.50;94.30;;;;;;5051268;28;19929;-72
2021/04/23 00:59:21;;;;;;;;;;;4.60;95.40;;;;;;5033417;28;19932;-73
2021/04/23 01:01:51;;;;;;;;;;;4.50;93.90;;;;;;5050337;28;19978;-72
2021/04/23 01:04:17;;;;;;;;;;;4.50;93.40;;;;;;5050803;28;19927;-72
2021/04/23 01:06:42;;;;;;;;;;;4.50;93.70;;;;;;5049979;28;20911;-73
2021/04/23 01:09:17;;;;;;;;;;;4.40;97.50;;;;;;5013440;28;19995;-73
2021/04/23 01:11:42;;;;;;;;;;;4.40;95.70;;;;;;5033363;28;19924;-72
2021/04/23 01:14:08;;;;;;;;;;;4.40;96.70;;;;;;5028650;28;21793;-73
2021/04/23 01:16:33;;;;;;;;;;;4.40;96.20;;;;;;5050120;28;20417;-72
2021/04/23 01:18:59;;;;;;;;;;;4.40;95.60;;;;;;5029144;28;19976;-73
2021/04/23 01:21:28;;;;;;;;;;;4.30;97.00;;;;;;5050008;28;20003;-72
2021/04/23 01:23:54;;;;;;;;;;;4.30;96.80;;;;;;5031716;28;19916;-73
2021/04/23 01:26:21;;;;;;;;;;;4.30;97.10;;;;;;5050348;28;19927;-72
2021/04/23 01:28:47;;;;;;;;;;;4.30;98.10;;;;;;5031935;28;20015;-72
2021/04/23 01:31:13;;;;;;;;;;;4.30;95.60;;;;;;5050369;28;19948;-73
2021/04/23 01:33:40;;;;;;;;;;;4.30;96.00;;;;;;5050296;28;19921;-72
2021/04/23 01:36:05;;;;;;;;;;;4.30;96.90;;;;;;5030451;28;19921;-72
2021/04/23 01:38:33;;;;;;;;;;;4.20;98.40;;;;;;5049577;28;19920;-72
2021/04/23 01:40:59;;;;;;;;;;;4.20;98.40;;;;;;5050571;28;19916;-72
2021/04/23 01:43:27;;;;;;;;;;;4.20;97.10;;;;;;5050007;28;19939;-72
2021/04/23 01:45:54;;;;;;;;;;;4.10;99.90;;;;;;5050750;28;19921;-72
2021/04/23 01:48:20;;;;;;;;;;;4.10;99.20;;;;;;5050172;28;19920;-72
2021/04/23 01:50:45;;;;;;;;;;;4.10;99.60;;;;;;5050167;28;19979;-72
2021/04/23 01:53:11;;;;;;;;;;;4.00;99.20;;;;;;5050479;28;19972;-73
2021/04/23 01:55:37;;;;;;;;;;;3.90;99.90;;;;;;5048446;28;19982;-72
2021/04/23 01:58:04;;;;;;;;;;;3.90;99.90;;;;;;5049439;28;19917;-72
2021/04/23 02:00:32;;;;;;;;;;;3.90;99.90;;;;;;5016726;28;19925;-73
2021/04/23 02:03:00;;;;;;;;;;;3.80;99.90;;;;;;5050337;28;21827;-73
2021/04/23 02:05:26;;;;;;;;;;;3.80;99.90;;;;;;5032766;28;19921;-72
2021/04/23 02:07:52;;;;;;;;;;;3.80;99.90;;;;;;5050291;28;19928;-73
2021/04/23 02:10:19;;;;;;;;;;;3.80;99.90;;;;;;5031400;28;20338;-72
2021/04/23 02:12:47;;;;;;;;;;;3.80;99.90;;;;;;5030193;28;20369;-72
2021/04/23 02:15:13;;;;;;;;;;;3.80;99.90;;;;;;5049919;28;19924;-72
2021/04/23 02:17:42;;;;;;;;;;;3.60;99.90;;;;;;5031993;28;19966;-72
2021/04/23 02:20:12;;;;;;;;;;;3.60;99.90;;;;;;5031090;28;19921;-72
2021/04/23 02:22:40;;;;;;;;;;;3.60;99.90;;;;;;5049553;28;19943;-72
2021/04/23 02:25:08;;;;;;;;;;;3.50;99.90;;;;;;5049953;28;19920;-73
2021/04/23 02:27:34;;;;;;;;;;;3.50;99.90;;;;;;5031284;28;19927;-73
2021/04/23 02:30:01;;;;;;;;;;;3.50;99.90;;;;;;5048914;28;20355;-73
2021/04/23 02:32:27;;;;;;;;;;;3.50;99.90;;;;;;5048870;28;19916;-72
2021/04/23 02:34:52;;;;;;;;;;;3.50;99.90;;;;;;5030482;28;20045;-73
2021/04/23 02:37:18;;;;;;;;;;;3.50;99.90;;;;;;5048797;28;20510;-72
2021/04/23 02:39:43;;;;;;;;;;;3.50;99.90;;;;;;5048567;28;19986;-72
2021/04/23 02:42:11;;;;;;;;;;;3.50;99.90;;;;;;5031390;28;19916;-72
2021/04/23 02:44:37;;;;;;;;;;;3.50;99.90;;;;;;5031206;28;19920;-72
2021/04/23 02:47:02;;;;;;;;;;;3.50;99.90;;;;;;5048717;28;20466;-72
2021/04/23 02:49:30;;;;;;;;;;;3.50;99.90;;;;;;5030849;28;19927;-72
2021/04/23 02:51:56;;;;;;;;;;;3.50;99.90;;;;;;5031195;28;21729;-72
2021/04/23 02:54:22;;;;;;;;;;;3.50;99.90;;;;;;5047353;28;19929;-73
2021/04/23 02:56:50;;;;;;;;;;;3.60;99.90;;;;;;5031491;28;19944;-72
2021/04/23 02:59:16;;;;;;;;;;;3.50;99.90;;;;;;5047523;28;19924;-72
2021/04/23 03:01:45;;;;;;;;;;;3.50;99.90;;;;;;5048234;28;19974;-73
2021/04/23 03:04:10;;;;;;;;;;;3.50;99.90;;;;;;5048189;28;20460;-73
2021/04/23 03:06:36;;;;;;;;;;;3.50;99.90;;;;;;5048288;28;19986;-72
2021/04/23 03:09:05;;;;;;;;;;;3.60;99.90;;;;;;5047676;28;20049;-72
2021/04/23 03:11:31;;;;;;;;;;;3.50;99.90;;;;;;5049670;28;19916;-72
2021/04/23 03:13:57;;;;;;;;;;;3.40;99.90;;;;;;5048983;28;19932;-72
2021/04/23 03:16:24;;;;;;;;;;;3.50;99.90;;;;;;5029020;28;20066;-73
2021/04/23 03:18:49;;;;;;;;;;;3.40;99.90;;;;;;5027215;28;20419;-72
2021/04/23 03:21:15;;;;;;;;;;;3.50;99.90;;;;;;5029366;28;19974;-72
2021/04/23 03:23:41;;;;;;;;;;;3.40;99.90;;;;;;5047998;28;19913;-72
2021/04/23 03:26:07;;;;;;;;;;;3.40;99.90;;;;;;5029781;28;19974;-72
2021/04/23 03:28:35;;;;;;;;;;;3.30;99.90;;;;;;5029569;28;20011;-72
2021/04/23 03:31:00;;;;;;;;;;;3.30;99.90;;;;;;5047079;28;19950;-72
2021/04/23 03:33:26;;;;;;;;;;;3.30;99.90;;;;;;5028471;28;19928;-72
2021/04/23 03:35:53;;;;;;;;;;;3.30;99.90;;;;;;5047717;28;19920;-72
2021/04/23 03:38:21;;;;;;;;;;;3.30;99.90;;;;;;5047670;28;19950;-72
2021/04/23 03:40:47;;;;;;;;;;;3.20;99.90;;;;;;5047236;28;19917;-72
2021/04/23 03:43:14;;;;;;;;;;;3.20;99.90;;;;;;5047921;28;19920;-72
2021/04/23 03:45:40;;;;;;;;;;;3.10;99.90;;;;;;5048085;28;19992;-72
2021/04/23 03:48:06;;;;;;;;;;;3.00;99.90;;;;;;5048802;28;19928;-72
2021/04/23 03:50:32;;;;;;;;;;;3.00;99.90;;;;;;5012436;28;20516;-72
2021/04/23 03:52:58;;;;;;;;;;;3.00;99.90;;;;;;5028763;28;20007;-72
2021/04/23 03:55:24;;;;;;;;;;;3.00;99.90;;;;;;5029891;28;20027;-72
2021/04/23 03:57:50;;;;;;;;;;;3.00;99.90;;;;;;5046877;28;19928;-72
2021/04/23 04:00:23;;;;;;;;;;;3.00;99.90;;;;;;5027694;28;19960;-71
2021/04/23 04:02:48;;;;;;;;;;;2.90;99.90;;;;;;5046517;28;20373;-72
2021/04/23 04:05:14;;;;;;;;;;;3.00;99.90;;;;;;5046959;28;20359;-72
2021/04/23 04:07:40;;;;;;;;;;;3.00;99.90;;;;;;5046598;28;19939;-71
2021/04/23 04:10:06;;;;;;;;;;;3.00;99.90;;;;;;5015998;28;20749;-72
2021/04/23 04:12:31;;;;;;;;;;;3.00;99.90;;;;;;5028860;28;19931;-71
2021/04/23 04:14:59;;;;;;;;;;;2.90;99.90;;;;;;5046438;28;21281;-72
2021/04/23 04:17:25;;;;;;;;;;;2.90;99.90;;;;;;5048215;28;19927;-72
2021/04/23 04:19:53;;;;;;;;;;;2.90;99.90;;;;;;5047463;28;19912;-71
2021/04/23 04:22:18;;;;;;;;;;;2.90;99.90;;;;;;5048083;28;19916;-71
2021/04/23 04:24:44;;;;;;;;;;;2.90;99.90;;;;;;5046790;28;19924;-72
2021/04/23 04:27:11;;;;;;;;;;;2.90;99.90;;;;;;5013611;28;20014;-72
2021/04/23 04:29:37;;;;;;;;;;;2.80;99.90;;;;;;5047858;28;20361;-72
2021/04/23 04:32:03;;;;;;;;;;;2.90;99.90;;;;;;5046986;28;19913;-73
2021/04/23 04:34:30;;;;;;;;;;;2.90;99.90;;;;;;5046950;28;19936;-72
2021/04/23 04:36:58;;;;;;;;;;;2.80;99.90;;;;;;5026307;28;20118;-72
2021/04/23 04:39:26;;;;;;;;;;;2.90;99.90;;;;;;5048868;28;19923;-72
2021/04/23 04:41:54;;;;;;;;;;;2.80;99.90;;;;;;5030123;28;20320;-72
2021/04/23 04:44:19;;;;;;;;;;;2.80;99.90;;;;;;5046505;28;19921;-72
2021/04/23 04:46:45;;;;;;;;;;;2.80;99.90;;;;;;5047445;28;20389;-72
2021/04/23 04:49:11;;;;;;;;;;;2.90;99.90;;;;;;5046542;28;19958;-72
2021/04/23 04:51:39;;;;;;;;;;;2.80;99.90;;;;;;5027753;28;19921;-72
2021/04/23 04:54:07;;;;;;;;;;;2.80;99.90;;;;;;5030394;28;20298;-72
2021/04/23 04:56:33;;;;;;;;;;;2.80;99.90;;;;;;5046593;28;19926;-72
2021/04/23 04:58:58;;;;;;;;;;;2.80;99.90;;;;;;5047548;28;20276;-72
2021/04/23 05:01:26;;;;;;;;;;;2.70;99.90;;;;;;5047480;28;19916;-73
2021/04/23 05:03:51;;;;;;;;;;;2.80;99.90;;;;;;5047308;28;19927;-73
2021/04/23 05:06:18;;;;;;;;;;;2.80;99.90;;;;;;5047266;28;19925;-72
2021/04/23 05:08:44;;;;;;;;;;;2.80;99.90;;;;;;5047819;28;20325;-72
2021/04/23 05:11:10;;;;;;;;;;;2.90;99.90;;;;;;5046890;28;19939;-72
2021/04/23 05:13:35;;;;;;;;;;;2.90;99.90;;;;;;5011960;28;19979;-72
2021/04/23 05:16:01;;;;;;;;;;;3.00;99.90;;;;;;5046747;28;20006;-73
2021/04/23 05:18:29;;;;;;;;;;;3.00;99.90;;;;;;5046082;28;19946;-72
2021/04/23 05:20:56;;;;;;;;;;;3.00;99.90;;;;;;5046339;28;19916;-72
2021/04/23 05:23:22;;;;;;;;;;;3.00;99.90;;;;;;5047723;28;19917;-72
2021/04/23 05:25:47;;;;;;;;;;;3.00;99.90;;;;;;5046679;28;20002;-72
2021/04/23 05:28:15;;;;;;;;;;;3.10;99.90;;;;;;5046213;28;19924;-72
2021/04/23 05:30:41;;;;;;;;;;;3.20;99.90;;;;;;5046787;28;20430;-72
2021/04/23 05:33:07;;;;;;;;;;;3.20;99.90;;;;;;5050064;28;19984;-72
2021/04/23 05:35:35;;;;;;;;;;;3.30;99.90;;;;;;5049883;28;20004;-73
2021/04/23 05:38:00;;;;;;;;;;;3.30;99.90;;;;;;5030974;28;19921;-72
2021/04/23 05:40:26;;;;;;;;;;;3.40;99.90;;;;;;5032031;28;19975;-73
2021/04/23 05:42:52;;;;;;;;;;;3.50;99.90;;;;;;5049543;28;19921;-72
2021/04/23 05:45:18;;;;;;;;;;;3.60;99.90;;;;;;5049702;28;19917;-72
2021/04/23 05:47:43;;;;;;;;;;;3.70;99.90;;;;;;5048976;28;19936;-73
2021/04/23 05:50:12;;;;;;;;;;;3.90;99.90;;;;;;5031007;28;21762;-72
2021/04/23 05:52:38;;;;;;;;;;;4.00;99.90;;;;;;5048831;28;19921;-72
2021/04/23 05:55:04;;;;;;;;;;;4.20;99.90;;;;;;5031953;28;19983;-72
2021/04/23 05:57:30;;;;;;;;;;;4.40;99.90;;;;;;5048251;28;20020;-72
2021/04/23 05:59:57;;;;;;;;;;;4.50;99.90;;;;;;5049891;28;20074;-72
2021/04/23 06:02:25;;;;;;;;;;;4.60;99.90;;;;;;5049309;28;19999;-72
2021/04/23 06:04:51;;;;;;;;;;;4.60;99.90;;;;;;5048459;28;19916;-72
2021/04/23 06:07:18;;;;;;;;;;;4.70;99.90;;;;;;5048597;28;19958;-72
2021/04/23 06:09:44;;;;;;;;;;;4.80;99.90;;;;;;5048942;28;19921;-72
2021/04/23 06:12:10;;;;;;;;;;;4.90;99.90;;;;;;5049518;28;21871;-72
2021/04/23 06:14:35;;;;;;;;;;;4.90;99.90;;;;;;5050093;28;20045;-72
2021/04/23 06:17:04;;;;;;;;;;;5.00;99.90;;;;;;5049709;28;19932;-73
2021/04/23 06:19:32;;;;;;;;;;;5.10;99.90;;;;;;5049348;28;19917;-73
2021/04/23 06:21:58;;;;;;;;;;;5.10;99.90;;;;;;5016773;28;21692;-73
2021/04/23 06:24:24;;;;;;;;;;;5.20;99.90;;;;;;5030678;28;19927;-72
2021/04/23 06:26:54;;;;;;;;;;;5.20;99.90;;;;;;5049030;28;19921;-73
2021/04/23 06:29:20;;;;;;;;;;;5.30;99.90;;;;;;5048191;28;19925;-72
2021/04/23 06:31:48;;;;;;;;;;;5.30;99.90;;;;;;5047577;28;20006;-73
2021/04/23 06:34:14;;;;;;;;;;;5.30;99.90;;;;;;5048968;28;19951;-73
2021/04/23 06:36:40;;;;;;;;;;;5.40;99.90;;;;;;5015516;28;20035;-72
2021/04/23 06:39:13;;;;;;;;;;;5.50;99.90;;;;;;5049087;28;20147;-73
2021/04/23 06:41:41;;;;;;;;;;;5.50;99.90;;;;;;5048630;28;20011;-73
2021/04/23 06:44:06;;;;;;;;;;;5.50;98.90;;;;;;5046712;28;19917;-73
2021/04/23 06:46:32;;;;;;;;;;;5.60;99.90;;;;;;5048979;28;20382;-73
2021/04/23 06:48:57;;;;;;;;;;;5.60;99.90;;;;;;5049038;28;19921;-72
2021/04/23 06:51:25;;;;;;;;;;;5.70;99.90;;;;;;5048429;28;20397;-72
2021/04/23 06:53:51;;;;;;;;;;;5.70;99.60;;;;;;5031872;28;19921;-73
2021/04/23 06:56:16;;;;;;;;;;;5.80;99.90;;;;;;5026705;28;19917;-73
2021/04/23 06:58:46;;;;;;;;;;;5.80;97.70;;;;;;5048594;28;19921;-72
2021/04/23 07:01:12;;;;;;;;;;;5.90;98.90;;;;;;5048338;28;20342;-72
2021/04/23 07:03:40;;;;;;;;;;;6.00;99.40;;;;;;5048695;28;19923;-73
2021/04/23 07:06:06;;;;;;;;;;;6.00;99.90;;;;;;5047384;28;20070;-72
2021/04/23 07:08:31;;;;;;;;;;;6.10;99.90;;;;;;5049007;28;20593;-73
2021/04/23 07:10:57;;;;;;;;;;;6.20;97.10;;;;;;5047147;28;20409;-73
2021/04/23 07:13:22;;;;;;;;;;;6.30;98.60;;;;;;5048010;28;19924;-73
2021/04/23 07:15:48;;;;;;;;;;;6.40;99.70;;;;;;5015286;28;19917;-73
2021/04/23 07:18:13;;;;;;;;;;;6.40;98.10;;;;;;5029608;28;21657;-73
2021/04/23 07:20:41;;;;;;;;;;;6.60;98.70;;;;;;5047378;28;20392;-73
2021/04/23 07:23:09;;;;;;;;;;;6.60;98.40;;;;;;5047897;28;19924;-73
2021/04/23 07:25:35;;;;;;;;;;;6.70;97.70;;;;;;5048439;28;20011;-73
2021/04/23 07:28:03;;;;;;;;;;;6.80;97.00;;;;;;5047617;28;19924;-73
2021/04/23 07:30:31;;;;;;;;;;;6.90;94.80;;;;;;5030221;28;19936;-73
2021/04/23 07:32:59;;;;;;;;;;;6.90;92.40;;;;;;5030380;28;20101;-73
2021/04/23 07:35:27;;;;;;;;;;;6.90;93.40;;;;;;5028945;28;19921;-73
2021/04/23 07:37:55;;;;;;;;;;;7.00;93.70;;;;;;4998095;28;19917;-73
2021/04/23 07:40:23;;;;;;;;;;;7.10;93.50;;;;;;5031625;28;19913;-73
2021/04/23 07:42:51;;;;;;;;;;;7.30;95.00;;;;;;5027261;28;19920;-73
2021/04/23 07:45:17;;;;;;;;;;;7.50;93.20;;;;;;5047592;28;19921;-73
2021/04/23 07:47:43;;;;;;;;;;;7.70;91.20;;;;;;5012093;28;20361;-73
2021/04/23 07:50:11;;;;;;;;;;;7.80;91.00;;;;;;5048615;28;19932;-73
2021/04/23 07:52:37;;;;;;;;;;;7.80;90.00;;;;;;5047127;28;19971;-73
2021/04/23 07:55:05;;;;;;;;;;;8.00;91.50;;;;;;5014318;28;21887;-73
2021/04/23 07:57:31;;;;;;;;;;;8.00;91.10;;;;;;5030050;28;20022;-73
2021/04/23 07:59:59;;;;;;;;;;;8.20;90.90;;;;;;5046151;28;20092;-74
2021/04/23 08:02:27;;;;;;;;;;;8.30;90.50;;;;;;5029907;28;19932;-73
2021/04/23 08:04:52;;;;;;;;;;;8.50;90.80;;;;;;5028038;28;19916;-73
2021/04/23 08:07:18;;;;;;;;;;;8.70;87.50;;;;;;4999033;28;20562;-73
2021/04/23 08:09:44;;;;;;;;;;;8.90;89.60;;;;;;5046972;28;19917;-73
2021/04/23 08:12:09;;;;;;;;;;;9.00;83.40;;;;;;5045696;28;21641;-73
2021/04/23 08:14:35;;;;;;;;;;;9.10;86.30;;;;;;5014030;28;19917;-73
2021/04/23 08:17:00;;;;;;;;;;;9.30;84.00;;;;;;5047510;28;20479;-73
2021/04/23 08:19:26;;;;;;;;;;;9.50;88.00;;;;;;5027818;28;19916;-74
2021/04/23 08:21:52;;;;;;;;;;;9.70;87.00;;;;;;5046588;28;19925;-74
2021/04/23 08:24:20;;;;;;;;;;;9.90;82.60;;;;;;5030451;28;19916;-74
2021/04/23 08:26:46;;;;;;;;;;;10.00;83.30;;;;;;5029016;28;19931;-73
2021/04/23 08:29:11;;;;;;;;;;;10.10;78.50;;;;;;5029741;28;19921;-73
2021/04/23 08:31:40;;;;;;;;;;;10.30;81.90;;;;;;5047504;28;20017;-74
2021/04/23 08:34:05;;;;;;;;;;;10.50;80.20;;;;;;5046144;28;19931;-74
2021/04/23 08:36:33;;;;;;;;;;;10.60;78.70;;;;;;5030369;28;19920;-73
2021/04/23 08:38:59;;;;;;;;;;;10.80;77.90;;;;;;5046355;28;19932;-73
2021/04/23 08:41:24;;;;;;;;;;;10.90;81.20;;;;;;5047978;28;19920;-73
2021/04/23 08:43:52;;;;;;;;;;;11.10;76.90;;;;;;5046611;28;20764;-73
2021/04/23 08:46:18;;;;;;;;;;;11.20;75.00;;;;;;5046816;28;19927;-74
2021/04/23 08:48:43;;;;;;;;;;;11.20;74.10;;;;;;5047047;28;19924;-73
2021/04/23 08:51:09;;;;;;;;;;;11.10;69.70;;;;;;5029718;28;19955;-73
2021/04/23 08:53:37;;;;;;;;;;;11.10;72.10;;;;;;5028449;28;20019;-73
2021/04/23 08:56:03;;;;;;;;;;;11.30;72.90;;;;;;5046795;28;19927;-73
2021/04/23 08:58:28;;;;;;;;;;;11.40;75.30;;;;;;5014052;28;19924;-73
2021/04/23 09:00:54;;;;;;;;;;;11.60;71.30;;;;;;5045672;28;19995;-77
2021/04/23 09:03:22;;;;;;;;;;;11.80;69.90;;;;;;5026470;28;19920;-76
2021/04/23 09:06:08;;;;;;;;;;;12.00;72.60;;;;;;5046931;28;20015;-76
2021/04/23 09:08:36;;;;;;;;;;;12.10;70.80;;;;;;5050267;28;21806;-76
2021/04/23 09:11:15;;;;;;;;;;;12.30;69.40;;;;;;5050035;28;19974;-76
2021/04/23 09:13:50;;;;;;;;;;;12.40;69.60;;;;;;5049777;28;19943;-73
2021/04/23 09:16:16;;;;;;;;;;;12.50;70.20;;;;;;5034588;28;20338;-74
2021/04/23 09:18:43;;;;;;;;;;;12.50;66.60;;;;;;5029570;28;19928;-74
2021/04/23 09:21:14;;;;;;;;;;;12.70;69.70;;;;;;5048029;28;19920;-74
2021/04/23 09:23:46;;;;;;;;;;;12.90;69.30;;;;;;5049741;28;19917;-74
2021/04/23 09:26:28;;;;;;;;;;;12.90;65.10;;;;;;5048627;28;19995;-74
2021/04/23 09:28:54;;;;;;;;;;;13.00;70.40;;;;;;5047113;28;19924;-74
2021/04/23 09:31:19;;;;;;;;;;;13.00;64.80;;;;;;5016093;28;19921;-74
2021/04/23 09:33:48;;;;;;;;;;;13.00;63.60;;;;;;5035295;28;19921;-74
2021/04/23 09:36:23;;;;;;;;;;;13.10;68.70;;;;;;5029403;28;19916;-74
2021/04/23 09:39:03;;;;;;;;;;;13.20;67.20;;;;;;5030314;28;19927;-74
2021/04/23 09:41:32;;;;;;;;;;;13.30;66.90;;;;;;5031532;28;20049;-74
2021/04/23 09:44:00;;;;;;;;;;;13.00;61.20;;;;;;5027531;28;19928;-74
2021/04/23 09:46:32;;;;;;;;;;;13.20;63.70;;;;;;5031572;28;20859;-75
2021/04/23 09:49:17;;;;;;;;;;;13.30;67.70;;;;;;5049003;28;19935;-74
2021/04/23 09:51:43;;;;;;;;;;;13.30;61.40;;;;;;5030740;28;19920;-74
2021/04/23 09:54:15;;;;;;;;;;;13.30;62.00;;;;;;5050324;28;19931;-78
2021/04/23 09:56:41;;;;;;;;;;;13.50;62.70;;;;;;5030577;28;19916;-77
2021/04/23 09:59:26;;;;;;;;;;;13.60;60.80;;;;;;5049328;28;19924;-74
2021/04/23 10:01:58;;;;;;;;;;;13.70;61.50;;;;;;5047433;28;19927;-74
2021/04/23 10:04:42;;;;;;;;;;;13.60;61.50;;;;;;5028265;28;19971;-74
2021/04/23 10:07:08;;;;;;;;;;;13.70;59.80;;;;;;5049727;28;19936;-74
2021/04/23 10:09:34;;;;;;;;;;;13.80;61.00;;;;;;5048039;28;19920;-74
2021/04/23 10:12:02;;;;;;;;;;;14.20;61.90;;;;;;5034763;28;19916;-74
2021/04/23 10:14:30;;;;;;;;;;;14.40;61.00;;;;;;5048573;28;19974;-74
2021/04/23 10:16:58;;;;;;;;;;;14.40;64.90;;;;;;5047968;28;20444;-74
2021/04/23 10:19:24;;;;;;;;;;;14.50;61.80;;;;;;5030010;28;20565;-74
2021/04/23 10:21:50;;;;;;;;;;;14.70;61.40;;;;;;5048097;28;19923;-74
2021/04/23 10:24:16;;;;;;;;;;;14.70;56.90;;;;;;5029976;28;20509;-74
2021/04/23 10:26:46;;;;;;;;;;;14.90;57.80;;;;;;5011947;28;19921;-74
2021/04/23 10:29:12;;;;;;;;;;;14.90;57.70;;;;;;5047598;28;20070;-74
2021/04/23 10:31:40;;;;;;;;;;;14.80;54.00;;;;;;5028881;28;19998;-74
2021/04/23 10:34:08;;;;;;;;;;;14.20;52.70;;;;;;5047634;28;19917;-74
2021/04/23 10:36:34;;;;;;;;;;;14.40;54.30;;;;;;5045475;28;19920;-74
2021/04/23 10:38:59;;;;;;;;;;;14.30;57.10;;;;;;5027274;28;19917;-74
2021/04/23 10:41:29;;;;;;;;;;;14.50;58.60;;;;;;5047290;28;19924;-74
2021/04/23 10:43:57;;;;;;;;;;;14.60;59.80;;;;;;5010830;28;19927;-74
2021/04/23 10:46:24;;;;;;;;;;;14.80;55.40;;;;;;5047962;28;19947;-74
2021/04/23 10:48:49;;;;;;;;;;;14.80;57.90;;;;;;5047397;28;19925;-74
2021/04/23 10:51:18;;;;;;;;;;;15.00;56.70;;;;;;5047350;28;19938;-74
2021/04/23 10:53:44;;;;;;;;;;;15.00;53.80;;;;;;5046734;28;19921;-76
2021/04/23 10:56:37;;;;;;;;;;;15.30;53.30;;;;;;5046538;28;19920;-74
2021/04/23 10:59:04;;;;;;;;;;;15.50;52.40;;;;;;5045546;28;20346;-74
2021/04/23 11:01:30;;;;;;;;;;;15.70;52.70;;;;;;5047260;28;19927;-74
2021/04/23 11:04:14;;;;;;;;;;;16.00;54.10;;;;;;5047615;28;19920;-74
2021/04/23 11:06:41;;;;;;;;;;;16.10;51.20;;;;;;5047492;28;20716;-74
2021/04/23 11:09:08;;;;;;;;;;;15.90;51.20;;;;;;5029225;28;20550;-74
2021/04/23 11:11:34;;;;;;;;;;;15.90;52.70;;;;;;5013635;28;20482;-74
2021/04/23 11:14:19;;;;;;;;;;;16.00;52.40;;;;;;5030943;28;19912;-74
2021/04/23 11:16:44;;;;;;;;;;;16.40;50.70;;;;;;5047252;28;19917;-74
2021/04/23 11:19:22;;;;;;;;;;;16.20;52.10;;;;;;5046809;28;20384;-74
2021/04/23 11:21:50;;;;;;;;;;;16.60;49.80;;;;;;5045607;28;19917;-74
2021/04/23 11:24:16;;;;;;;;;;;16.30;52.80;;;;;;5029830;28;19921;-74
2021/04/23 11:29:20;;;;;;;;;;;16.50;50.90;;;;;;5046345;28;20476;-74
2021/04/23 11:32:04;;;;;;;;;;;16.80;52.50;;;;;;5028029;28;19917;-74
2021/04/23 11:34:34;;;;;;;;;;;16.60;51.20;;;;;;5047013;28;19928;-74
2021/04/23 11:37:00;;;;;;;;;;;16.90;50.60;;;;;;5046181;28;19966;-74
2021/04/23 11:39:33;;;;;;;;;;;16.90;54.40;;;;;;5046305;28;19924;-74
2021/04/23 11:42:17;;;;;;;;;;;17.50;51.40;;;;;;5046284;28;19928;-74
2021/04/23 11:44:43;;;;;;;;;;;17.60;51.20;;;;;;5049011;28;20011;-74
2021/04/23 11:47:09;;;;;;;;;;;17.60;51.00;;;;;;5047091;28;20731;-74
2021/04/23 11:49:34;;;;;;;;;;;18.20;49.20;;;;;;5047097;28;19924;-74
2021/04/23 11:52:04;;;;;;;;;;;18.00;48.20;;;;;;5029375;28;20321;-74
2021/04/23 11:54:36;;;;;;;;;;;17.80;47.40;;;;;;5045311;28;19921;-74
2021/04/23 11:57:03;;;;;;;;;;;17.50;49.90;;;;;;5028357;28;19921;-74
2021/04/23 11:59:28;;;;;;;;;;;18.20;50.30;;;;;;5013698;28;21670;-75
2021/04/23 12:01:54;;;;;;;;;;;18.30;48.90;;;;;;5046468;28;19921;-74
2021/04/23 12:04:38;;;;;;;;;;;18.20;46.30;;;;;;5046363;28;19947;-74
2021/04/23 12:07:03;;;;;;;;;;;18.70;45.60;;;;;;5045528;28;20018;-75
2021/04/23 12:09:29;;;;;;;;;;;18.40;47.90;;;;;;5027319;28;20423;-74
2021/04/23 12:12:07;;;;;;;;;;;18.70;47.20;;;;;;5045410;28;20559;-74
2021/04/23 12:14:42;;;;;;;;;;;18.50;45.70;;;;;;5046866;28;19947;-74
2021/04/23 12:17:10;;;;;;;;;;;18.40;44.20;;;;;;5026172;28;19996;-74
2021/04/23 12:19:36;;;;;;;;;;;18.60;46.70;;;;;;5045828;28;20049;-74
2021/04/23 12:22:04;;;;;;;;;;;19.20;46.80;;;;;;5025451;28;20568;-73
2021/04/23 12:24:29;;;;;;;;;;;19.40;44.80;;;;;;5045609;28;19921;-75
2021/04/23 12:26:55;;;;;;;;;;;19.90;47.10;;;;;;5045605;28;20388;-74
2021/04/23 12:29:21;;;;;;;;;;;20.40;42.30;;;;;;5046470;28;20019;-75
2021/04/23 12:31:47;;;;;;;;;;;20.40;41.00;;;;;;5046493;28;19920;-75
2021/04/23 12:34:14;;;;;;;;;;;20.70;39.10;;;;;;5046090;28;19917;-78
2021/04/23 12:36:43;;;;;;;;;;;20.80;40.50;;;;;;5045872;28;20346;-75
2021/04/23 12:39:08;;;;;;;;;;;20.90;42.20;;;;;;5029659;28;19921;-75
2021/04/23 12:41:36;;;;;;;;;;;20.30;43.00;;;;;;5048987;28;19920;-79
2021/04/23 12:44:05;;;;;;;;;;;20.80;39.20;;;;;;5037906;28;19916;-80
2021/04/23 12:46:32;;;;;;;;;;;21.20;38.10;;;;;;5049700;28;19917;-74
2021/04/23 12:49:02;;;;;;;;;;;21.20;36.60;;;;;;5049559;28;19920;-74
2021/04/23 12:51:28;;;;;;;;;;;20.50;34.60;;;;;;5018152;28;19971;-74
2021/04/23 12:53:56;;;;;;;;;;;20.70;40.00;;;;;;5032709;28;19928;-74
2021/04/23 12:56:22;;;;;;;;;;;20.80;41.60;;;;;;5004510;28;19931;-74
2021/04/23 12:58:50;;;;;;;;;;;20.40;35.50;;;;;;5018962;28;19928;-74
2021/04/23 13:01:16;;;;;;;;;;;19.70;36.80;;;;;;5032891;28;20015;-74
2021/04/23 13:03:43;;;;;;;;;;;19.90;37.40;;;;;;5050699;28;19931;-74
2021/04/23 13:06:20;;;;;;;;;;;19.90;38.70;;;;;;5014288;28;19925;-74
2021/04/23 13:08:55;;;;;;;;;;;19.80;35.50;;;;;;5048838;28;19924;-74
2021/04/23 13:11:24;;;;;;;;;;;20.00;36.70;;;;;;5050203;28;19921;-74
2021/04/23 13:13:50;;;;;;;;;;;20.20;39.10;;;;;;5049124;28;20007;-75
2021/04/23 13:16:17;;;;;;;;;;;19.90;41.20;;;;;;5049750;28;20240;-74
2021/04/23 13:18:45;;;;;;;;;;;19.70;41.60;;;;;;5049743;28;20010;-74
2021/04/23 13:21:10;;;;;;;;;;;19.20;40.90;;;;;;5030263;28;19917;-75
2021/04/23 13:23:36;;;;;;;;;;;19.50;42.80;;;;;;5048480;28;19954;-74
2021/04/23 13:26:02;;;;;;;;;;;19.40;45.00;;;;;;5049047;28;20445;-74
2021/04/23 13:28:30;;;;;;;;;;;19.40;42.20;;;;;;5048723;28;19925;-74
2021/04/23 13:30:57;;;;;;;;;;;18.80;41.80;;;;;;5049227;28;20341;-75
2021/04/23 13:33:32;;;;;;;;;;;19.10;42.60;;;;;;5049794;28;19917;-75
2021/04/23 13:36:17;;;;;;;;;;;19.10;44.80;;;;;;5050138;28;19932;-74
2021/04/23 13:38:47;;;;;;;;;;;19.20;42.40;;;;;;5049144;28;20020;-75
2021/04/23 13:41:16;;;;;;;;;;;19.50;38.80;;;;;;5049785;28;19932;-74
2021/04/23 13:43:45;;;;;;;;;;;18.70;39.70;;;;;;5050059;28;19916;-74
2021/04/23 13:46:11;;;;;;;;;;;18.30;42.70;;;;;;5031981;28;19928;-74
2021/04/23 13:48:36;;;;;;;;;;;18.20;42.00;;;;;;5048616;28;19935;-74
2021/04/23 13:51:02;;;;;;;;;;;18.00;42.50;;;;;;5031432;28;19917;-74
2021/04/23 13:53:28;;;;;;;;;;;18.30;44.80;;;;;;5047917;28;19953;-74
2021/04/23 13:56:04;;;;;;;;;;;18.40;43.40;;;;;;5049392;28;20023;-74
2021/04/23 13:58:29;;;;;;;;;;;18.00;42.50;;;;;;5048985;28;19916;-74
2021/04/23 14:00:58;;;;;;;;;;;18.10;44.80;;;;;;5049337;28;19955;-74
2021/04/23 14:03:24;;;;;;;;;;;17.60;42.10;;;;;;5030131;28;20350;-74
2021/04/23 14:05:52;;;;;;;;;;;17.40;43.40;;;;;;5014275;28;19932;-79
2021/04/23 14:08:17;;;;;;;;;;;17.80;42.40;;;;;;5016261;28;19956;-75
2021/04/23 14:10:43;;;;;;;;;;;17.30;40.80;;;;;;5032529;28;19980;-74
2021/04/23 14:13:09;;;;;;;;;;;17.50;44.00;;;;;;5047596;28;19927;-73
2021/04/23 14:15:34;;;;;;;;;;;17.40;45.10;;;;;;5048934;28;19948;-72
2021/04/23 14:18:00;;;;;;;;;;;17.40;47.10;;;;;;5048279;28;19979;-72
2021/04/23 14:20:28;;;;;;;;;;;17.40;44.40;;;;;;5047175;28;20262;-72
2021/04/23 14:22:54;;;;;;;;;;;17.30;45.70;;;;;;5047184;28;19952;-72
2021/04/23 14:25:21;;;;;;;;;;;17.50;45.30;;;;;;5031711;28;20015;-72
2021/04/23 14:27:47;;;;;;;;;;;17.40;45.90;;;;;;5048333;28;19921;-72